Time;durP1;ratioP1;P1;durP2;ratioP2;P2;SDS_P1;SDS_P2;PMS_P1;PMS_P2;Temp;Humidity;BMP_temperature;BMP_pressure;BME280_temperature;BME280_humidity;BME280_pressure;Samples;Min_cycle;Max_cycle;Signal;HPM_P1;HPM_P2
2023/01/18 00:01:37;;;;;;;;;;;;;;;17.82;64.07;98420.00;2356025;75;51086;-75
2023/01/18 00:04:38;;;;;;;;;;;;;;;17.86;63.91;98413.16;2354219;75;51639;-75
2023/01/18 00:07:40;;;;;;;;;;;;;;;17.89;63.85;98415.89;2354611;75;51409;-75
2023/01/18 00:10:41;;;;;;;;;;;;;;;17.86;63.90;98406.99;2354480;75;51571;-76
2023/01/18 00:13:43;;;;;;;;;;;;;;;17.83;63.98;98405.59;2327747;75;51010;-75
2023/01/18 00:16:44;;;;;;;;;;;;;;;17.78;64.12;98402.77;2378961;75;51534;-75
2023/01/18 00:19:46;;;;;;;;;;;;;;;17.74;64.34;98396.25;2378841;74;51563;-75
2023/01/18 00:22:49;;;;;;;;;;;;;;;17.72;64.43;98388.97;2354379;75;51495;-75
2023/01/18 00:25:50;;;;;;;;;;;;;;;17.72;64.49;98382.29;2332820;73;52525;-75
2023/01/18 00:28:52;;;;;;;;;;;;;;;17.71;64.54;98388.70;2389693;73;51466;-75
2023/01/18 00:31:54;;;;;;;;;;;;;;;17.69;64.49;98384.91;2354518;75;51424;-75
2023/01/18 00:34:55;;;;;;;;;;;;;;;17.73;64.40;98391.95;2378924;75;50832;-75
2023/01/18 00:37:57;;;;;;;;;;;;;;;17.81;64.15;98380.94;2356159;74;49604;-75
2023/01/18 00:40:58;;;;;;;;;;;;;;;17.87;63.96;98393.89;2378869;74;50237;-76
2023/01/18 00:44:00;;;;;;;;;;;;;;;17.89;63.82;98389.94;2354314;74;50655;-76
2023/01/18 00:47:02;;;;;;;;;;;;;;;17.90;63.76;98388.88;2354507;73;50473;-76
2023/01/18 00:50:04;;;;;;;;;;;;;;;17.86;63.81;98394.95;2327995;75;51159;-76
2023/01/18 00:53:05;;;;;;;;;;;;;;;17.83;63.98;98396.23;2378663;74;51468;-76
2023/01/18 00:56:07;;;;;;;;;;;;;;;17.78;64.08;98392.08;2386896;73;50269;-76
2023/01/18 00:59:09;;;;;;;;;;;;;;;17.73;64.31;98394.63;2385355;73;51543;-76
2023/01/18 01:02:11;;;;;;;;;;;;;;;17.73;64.37;98401.31;2354303;75;51463;-76
2023/01/18 01:08:37;;;;;;;;;;;;;;;17.69;64.44;98406.83;2379235;75;22382;-75
2023/01/18 01:11:38;;;;;;;;;;;;;;;17.72;64.35;98409.03;2378856;74;50257;-75
2023/01/18 01:27:59;;;;;;;;;;;;;;;17.87;63.78;98440.19;2394294;73;22450;-75
2023/01/18 01:31:01;;;;;;;;;;;;;;;17.81;63.97;98446.47;2354597;75;52253;-75
2023/01/18 01:34:03;;;;;;;;;;;;;;;17.77;64.14;98457.30;2378600;73;50737;-75
2023/01/18 01:37:05;;;;;;;;;;;;;;;17.72;64.39;98462.52;2354637;75;50089;-75
2023/01/18 01:40:06;;;;;;;;;;;;;;;17.72;64.49;98466.01;2378901;73;50339;-75
2023/01/18 01:43:12;;;;;;;;;;;;;;;17.71;64.57;98475.63;2355928;75;51373;-75
2023/01/18 01:46:18;;;;;;;;;;;;;;;17.68;64.56;98466.72;2378789;74;51559;-75
2023/01/18 01:49:25;;;;;;;;;;;;;;;17.73;64.50;98464.98;2378673;73;50662;-75
2023/01/18 01:52:28;;;;;;;;;;;;;;;17.82;64.27;98470.83;2355567;75;50349;-75
2023/01/18 01:55:34;;;;;;;;;;;;;;;17.90;64.06;98477.70;2378895;74;50695;-75
2023/01/18 01:58:36;;;;;;;;;;;;;;;17.91;63.96;98492.19;2363691;74;51682;-75
2023/01/18 02:01:37;;;;;;;;;;;;;;;17.91;63.96;98491.39;2378928;75;50696;-76
2023/01/18 02:04:43;;;;;;;;;;;;;;;17.87;64.04;98495.03;2355638;75;51711;-76
2023/01/18 02:07:42;;;;;;;;;;;;;;;17.84;64.13;98492.81;2378947;74;23435;-76
2023/01/18 02:10:44;;;;;;;;;;;;;;;17.80;64.21;98496.98;2378922;75;50746;-76
2023/01/18 02:13:45;;;;;;;;;;;;;;;17.74;64.38;98501.90;2354403;75;51688;-75
2023/01/18 02:16:55;;;;;;;;;;;;;;;17.74;64.49;98495.22;2356145;75;51199;-76
2023/01/18 02:20:07;;;;;;;;;;;;;;;17.71;64.59;98487.13;2378959;73;50213;-76
2023/01/18 02:23:16;;;;;;;;;;;;;;;17.68;64.63;98482.24;2376948;74;50838;-75
2023/01/18 02:26:22;;;;;;;;;;;;;;;17.72;64.55;98481.25;2389012;72;51562;-75
2023/01/18 02:29:38;;;;;;;;;;;;;;;17.81;64.32;98479.91;2359441;74;51231;-75
2023/01/18 02:32:50;;;;;;;;;;;;;;;17.86;64.12;98480.56;2378812;74;50702;-75
2023/01/18 02:35:53;;;;;;;;;;;;;;;17.86;64.11;98474.69;2265502;74;51490;-75
2023/01/18 02:38:55;;;;;;;;;;;;;;;17.80;64.19;98480.44;2379089;74;50694;-75
2023/01/18 02:48:45;;;;;;;;;;;;;;;17.70;64.55;98496.70;2379393;74;23227;-75
2023/01/18 02:51:47;;;;;;;;;;;;;;;17.67;64.72;98497.17;2378920;75;50341;-74
2023/01/18 02:54:48;;;;;;;;;;;;;;;17.64;64.77;98497.91;2328013;74;51420;-75
2023/01/18 02:57:50;;;;;;;;;;;;;;;17.62;64.80;98490.66;2379042;74;50482;-75
2023/01/18 03:00:56;;;;;;;;;;;;;;;17.68;64.63;98502.83;2379051;74;50787;-75
2023/01/18 03:03:59;;;;;;;;;;;;;;;17.72;64.48;98499.44;2378103;73;52381;-75
2023/01/18 03:07:10;;;;;;;;;;;;;;;17.80;64.26;98487.13;2354165;75;52957;-75
2023/01/18 03:10:13;;;;;;;;;;;;;;;17.89;63.97;98491.61;2379068;74;50708;-75
2023/01/18 03:13:15;;;;;;;;;;;;;;;17.93;63.85;98492.78;2378795;74;51471;-75
2023/01/18 03:16:21;;;;;;;;;;;;;;;17.93;63.82;98493.28;2378985;74;51610;-75
2023/01/18 03:26:06;;;;;;;;;;;;;;;17.82;64.01;98500.25;2386992;72;22586;-75
2023/01/18 03:35:47;;;;;;;;;;;;;;;17.67;64.52;98506.00;2379303;73;23185;-75
2023/01/18 03:38:50;;;;;;;;;;;;;;;17.66;64.56;98503.05;2379186;74;50732;-75
2023/01/18 03:41:53;;;;;;;;;;;;;;;17.69;64.46;98505.25;2379066;75;50703;-75
2023/01/18 03:44:59;;;;;;;;;;;;;;;17.80;64.18;98508.52;2355923;75;52489;-75
2023/01/18 03:48:01;;;;;;;;;;;;;;;17.87;63.92;98517.77;2379008;73;51496;-76
2023/01/18 03:51:04;;;;;;;;;;;;;;;17.89;63.84;98502.30;2379067;75;51649;-75
2023/01/18 03:54:10;;;;;;;;;;;;;;;17.88;63.87;98503.86;2364178;75;50390;-76
2023/01/18 03:57:22;;;;;;;;;;;;;;;17.84;63.93;98495.50;2394158;73;51495;-76
2023/01/18 04:00:24;;;;;;;;;;;;;;;17.80;64.06;98495.65;2379085;75;50305;-76
2023/01/18 04:03:26;;;;;;;;;;;;;;;17.76;64.19;98494.47;2354490;75;50361;-76
2023/01/18 04:06:27;;;;;;;;;;;;;;;17.69;64.36;98493.22;2379042;74;50343;-76
2023/01/18 04:09:29;;;;;;;;;;;;;;;17.68;64.54;98505.50;2356220;75;52421;-75
2023/01/18 04:12:33;;;;;;;;;;;;;;;17.65;64.61;98504.10;2378848;73;51491;-75
2023/01/18 04:15:34;;;;;;;;;;;;;;;17.66;64.60;98504.38;2355301;75;22368;-75
2023/01/18 04:18:35;;;;;;;;;;;;;;;17.71;64.46;98504.52;2354662;75;50739;-75
2023/01/18 04:21:41;;;;;;;;;;;;;;;17.78;64.27;98497.20;2328296;75;49674;-75
2023/01/18 04:24:40;;;;;;;;;;;;;;;17.87;64.02;98494.22;2353385;73;22278;-76
2023/01/18 04:27:42;;;;;;;;;;;;;;;17.91;63.90;98492.19;2369469;73;51466;-75
2023/01/18 04:30:43;;;;;;;;;;;;;;;17.90;63.87;98499.91;2355271;74;51310;-75
2023/01/18 04:33:45;;;;;;;;;;;;;;;17.89;63.89;98502.84;2355968;75;51068;-76
2023/01/18 04:36:46;;;;;;;;;;;;;;;17.83;63.96;98494.69;2379202;75;51528;-79
2023/01/18 04:39:48;;;;;;;;;;;;;;;17.80;64.12;98496.98;2379122;74;51572;-75
2023/01/18 04:42:53;;;;;;;;;;;;;;;17.76;64.25;98498.48;2354533;75;51456;-75
2023/01/18 04:45:55;;;;;;;;;;;;;;;17.69;64.50;98500.44;2356123;73;50324;-75
2023/01/18 04:48:56;;;;;;;;;;;;;;;17.70;64.52;98504.73;2378980;74;51422;-75
2023/01/18 04:51:58;;;;;;;;;;;;;;;17.67;64.63;98512.69;2378852;74;50635;-74
2023/01/18 04:55:00;;;;;;;;;;;;;;;17.69;64.50;98510.61;2354922;74;51531;-75
2023/01/18 04:58:01;;;;;;;;;;;;;;;17.76;64.30;98511.33;2339064;75;52325;-75
2023/01/18 05:01:03;;;;;;;;;;;;;;;17.83;64.09;98504.58;2355159;75;51534;-74
2023/01/18 05:04:05;;;;;;;;;;;;;;;17.89;63.95;98508.19;2358975;75;50760;-75
2023/01/18 05:07:06;;;;;;;;;;;;;;;17.89;63.84;98513.01;2379346;75;51560;-75
2023/01/18 05:10:08;;;;;;;;;;;;;;;17.86;63.85;98509.46;2328546;75;52312;-74
2023/01/18 05:13:10;;;;;;;;;;;;;;;17.82;63.93;98525.14;2355640;75;52461;-75
2023/01/18 05:16:12;;;;;;;;;;;;;;;17.78;64.07;98521.81;2360250;75;50965;-74
2023/01/18 05:19:14;;;;;;;;;;;;;;;17.74;64.22;98524.64;2379416;74;50080;-75
2023/01/18 05:22:15;;;;;;;;;;;;;;;17.69;64.46;98528.52;2328568;75;51217;-75
2023/01/18 05:25:17;;;;;;;;;;;;;;;17.67;64.56;98531.94;2355514;74;50433;-77
2023/01/18 05:28:19;;;;;;;;;;;;;;;17.63;64.70;98533.73;2396469;73;51587;-74
2023/01/18 05:31:21;;;;;;;;;;;;;;;17.66;64.61;98531.13;2380530;75;50554;-75
2023/01/18 05:34:23;;;;;;;;;;;;;;;17.75;64.40;98535.61;2328277;75;51104;-75
2023/01/18 05:37:24;;;;;;;;;;;;;;;17.81;64.22;98536.09;2354584;75;50085;-75
2023/01/18 05:40:26;;;;;;;;;;;;;;;17.89;63.97;98541.62;2354751;75;50302;-76
2023/01/18 05:43:27;;;;;;;;;;;;;;;17.92;63.86;98541.16;2354451;75;50369;-76
2023/01/18 05:46:29;;;;;;;;;;;;;;;17.92;63.82;98543.31;2328142;75;50217;-76
2023/01/18 05:49:30;;;;;;;;;;;;;;;17.89;63.85;98547.79;2378948;74;50798;-75
2023/01/18 05:52:32;;;;;;;;;;;;;;;17.85;63.92;98549.28;2378510;74;51485;-75
2023/01/18 05:55:34;;;;;;;;;;;;;;;17.82;64.02;98555.09;2378959;74;50317;-75
2023/01/18 05:58:37;;;;;;;;;;;;;;;17.77;64.15;98553.59;2315954;74;51679;-76
2023/01/18 06:01:38;;;;;;;;;;;;;;;17.71;64.45;98549.17;2378993;75;51603;-75
2023/01/18 06:04:40;;;;;;;;;;;;;;;17.71;64.48;98560.68;2354268;75;51617;-76
2023/01/18 06:07:42;;;;;;;;;;;;;;;17.67;64.62;98567.52;2379336;75;50306;-75
2023/01/18 06:10:43;;;;;;;;;;;;;;;17.70;64.52;98567.58;2354607;73;50293;-75
2023/01/18 06:13:45;;;;;;;;;;;;;;;17.78;64.28;98575.30;2378803;75;51522;-75
2023/01/18 06:16:46;;;;;;;;;;;;;;;17.85;64.06;98572.02;2379178;75;50240;-78
2023/01/18 06:19:48;;;;;;;;;;;;;;;17.87;63.99;98576.63;2379348;75;50210;-77
2023/01/18 06:22:49;;;;;;;;;;;;;;;17.89;63.95;98588.45;2354789;75;50312;-79
2023/01/18 06:25:51;;;;;;;;;;;;;;;17.84;63.97;98583.77;2357289;74;52204;-78
2023/01/18 06:28:53;;;;;;;;;;;;;;;17.81;64.04;98593.07;2414299;73;50351;-79
2023/01/18 06:31:54;;;;;;;;;;;;;;;17.75;64.23;98589.95;2424588;73;50370;-78
2023/01/18 06:34:56;;;;;;;;;;;;;;;17.71;64.40;98597.31;2390667;73;50224;-79
2023/01/18 06:38:06;;;;;;;;;;;;;;;17.69;64.50;98600.73;2365530;72;50981;-79
2023/01/18 06:41:19;;;;;;;;;;;;;;;17.69;61.12;98604.74;2427443;73;22321;-80
2023/01/18 06:47:49;;;;;;;;;;;;;;;17.95;60.55;98603.05;2334443;76;22449;-78
2023/01/18 06:50:54;;;;;;;;;;;;;;;18.02;60.52;98610.98;2306654;75;52657;-79
2023/01/18 06:54:01;;;;;;;;;;;;;;;18.08;60.68;98614.08;2307854;76;51977;-79
2023/01/18 06:57:03;;;;;;;;;;;;;;;18.15;60.69;98611.31;2319975;75;50907;-79
2023/01/18 07:00:06;;;;;;;;;;;;;;;18.28;60.75;98621.27;2307155;77;50807;-79
2023/01/18 07:03:09;;;;;;;;;;;;;;;18.29;60.97;98620.78;2283362;76;50542;-79
2023/01/18 07:06:11;;;;;;;;;;;;;;;18.37;60.94;98624.45;2308255;76;50685;-77
2023/01/18 07:09:13;;;;;;;;;;;;;;;18.30;61.25;98622.39;2303777;77;51432;-77
2023/01/18 07:12:14;;;;;;;;;;;;;;;18.31;61.63;98625.35;2303479;77;50401;-76
2023/01/18 07:15:16;;;;;;;;;;;;;;;18.29;61.66;98626.13;2277928;77;50438;-77
2023/01/18 07:18:18;;;;;;;;;;;;;;;18.27;62.13;98622.86;2303535;77;51627;-77
2023/01/18 07:21:21;;;;;;;;;;;;;;;18.20;62.23;98631.52;2303386;77;51373;-77
2023/01/18 07:24:23;;;;;;;;;;;;;;;18.15;62.19;98633.53;2307725;75;51825;-78
2023/01/18 07:27:25;;;;;;;;;;;;;;;18.11;62.26;98637.73;2351142;73;51184;-78
2023/01/18 07:30:27;;;;;;;;;;;;;;;18.09;62.29;98644.36;2390611;73;51542;-78
2023/01/18 07:33:29;;;;;;;;;;;;;;;18.09;62.20;98650.52;2424474;73;51499;-77
2023/01/18 07:36:30;;;;;;;;;;;;;;;18.08;62.23;98644.05;2424574;72;52358;-78
2023/01/18 07:39:32;;;;;;;;;;;;;;;18.03;62.32;98655.42;2390566;73;52371;-78
2023/01/18 07:42:33;;;;;;;;;;;;;;;18.03;62.27;98657.61;2424593;73;51417;-77
2023/01/18 07:45:36;;;;;;;;;;;;;;;18.03;62.22;98662.95;2424473;72;52144;-77
2023/01/18 07:48:38;;;;;;;;;;;;;;;17.96;62.31;98666.24;2422529;73;50720;-77
2023/01/18 07:51:40;;;;;;;;;;;;;;;17.91;62.46;98662.09;2339973;73;50017;-77
2023/01/18 07:54:41;;;;;;;;;;;;;;;17.82;62.69;98661.58;2380442;74;50349;-77
2023/01/18 07:57:43;;;;;;;;;;;;;;;17.75;62.94;98662.67;2395140;73;50425;-77
2023/01/18 08:00:44;;;;;;;;;;;;;;;17.76;62.89;98647.75;2354649;75;50719;-77
2023/01/18 08:03:49;;;;;;;;;;;;;;;17.83;62.70;98649.04;2355005;73;50739;-77
2023/01/18 08:06:51;;;;;;;;;;;;;;;17.93;62.38;98647.97;2380915;73;50709;-77
2023/01/18 08:09:53;;;;;;;;;;;;;;;17.98;62.35;98640.58;2381147;73;50664;-77
2023/01/18 08:12:54;;;;;;;;;;;;;;;18.08;62.08;98648.05;2381076;74;50105;-78
2023/01/18 08:15:58;;;;;;;;;;;;;;;18.16;61.90;98643.70;2332117;74;51455;-78
2023/01/18 08:18:59;;;;;;;;;;;;;;;18.21;61.76;98648.70;2381297;74;51377;-78
2023/01/18 08:22:01;;;;;;;;;;;;;;;18.21;61.75;98646.52;2380855;74;50640;-77
2023/01/18 08:25:03;;;;;;;;;;;;;;;18.12;61.98;98650.05;2380761;73;50726;-77
2023/01/18 08:28:05;;;;;;;;;;;;;;;18.17;61.77;98651.52;2328169;75;49622;-76
2023/01/18 08:31:16;;;;;;;;;;;;;;;18.18;61.63;98650.99;2380598;74;49759;-77
2023/01/18 08:34:18;;;;;;;;;;;;;;;18.17;61.68;98656.88;2377988;74;51399;-77
2023/01/18 08:37:22;;;;;;;;;;;;;;;18.13;61.81;98656.22;2381117;74;51458;-78
2023/01/18 08:40:23;;;;;;;;;;;;;;;18.10;62.07;98660.70;2381099;74;22316;-77
2023/01/18 08:43:25;;;;;;;;;;;;;;;18.00;62.30;98662.05;2358330;74;51614;-77
2023/01/18 08:46:26;;;;;;;;;;;;;;;18.03;62.21;98668.31;2381190;74;51429;-77
2023/01/18 08:49:28;;;;;;;;;;;;;;;18.14;61.87;98661.88;2381091;74;50611;-77
2023/01/18 08:52:30;;;;;;;;;;;;;;;18.14;61.77;98671.25;2358166;74;51212;-77
2023/01/18 08:55:32;;;;;;;;;;;;;;;18.13;61.88;98672.28;2357619;74;50289;-77
2023/01/18 08:58:34;;;;;;;;;;;;;;;18.12;61.98;98680.03;2424423;73;51608;-77
2023/01/18 09:01:36;;;;;;;;;;;;;;;18.10;62.04;98682.11;2382280;72;50743;-78
2023/01/18 09:04:37;;;;;;;;;;;;;;;18.09;62.03;98677.28;2299787;76;50602;-78
2023/01/18 09:07:39;;;;;;;;;;;;;;;18.06;62.05;98679.89;2319392;74;50688;-77
2023/01/18 09:10:40;;;;;;;;;;;;;;;18.03;62.18;98687.53;2381337;74;50398;-77
2023/01/18 09:13:42;;;;;;;;;;;;;;;17.95;62.38;98687.34;2359169;74;49987;-78
2023/01/18 09:16:44;;;;;;;;;;;;;;;17.88;62.63;98693.81;2346183;74;50633;-77
2023/01/18 09:19:46;;;;;;;;;;;;;;;17.93;62.58;98695.30;2382334;74;50742;-77
2023/01/18 09:22:47;;;;;;;;;;;;;;;18.03;62.12;98692.39;2381169;74;50255;-77
2023/01/18 09:25:49;;;;;;;;;;;;;;;18.11;61.96;98695.27;2384400;73;50285;-77
2023/01/18 09:28:51;;;;;;;;;;;;;;;18.19;61.70;98700.30;2342817;74;52425;-78
2023/01/18 09:31:54;;;;;;;;;;;;;;;18.21;61.66;98700.05;2383363;74;50659;-78
2023/01/18 09:34:56;;;;;;;;;;;;;;;18.24;62.00;98704.98;2380956;74;52573;-77
2023/01/18 09:37:57;;;;;;;;;;;;;;;18.26;62.21;98712.23;2358193;74;50285;-77
2023/01/18 09:40:59;;;;;;;;;;;;;;;18.27;62.08;98715.22;2331550;74;50771;-77
2023/01/18 09:44:02;;;;;;;;;;;;;;;18.26;61.99;98713.58;2342071;74;51559;-77
2023/01/18 09:47:05;;;;;;;;;;;;;;;18.19;62.16;98709.67;2340531;76;50847;-77
2023/01/18 09:50:09;;;;;;;;;;;;;;;18.17;62.12;98706.39;2340501;75;50680;-78
2023/01/18 09:53:22;;;;;;;;;;;;;;;18.12;62.26;98713.48;2346245;73;52549;-77
2023/01/18 09:56:24;;;;;;;;;;;;;;;18.01;62.70;98715.88;2375952;73;50372;-77
2023/01/18 09:59:33;;;;;;;;;;;;;;;18.05;62.99;98714.37;2381939;73;50800;-77
2023/01/18 10:02:41;;;;;;;;;;;;;;;18.14;62.94;98717.56;2380740;74;50459;-77
2023/01/18 10:05:44;;;;;;;;;;;;;;;18.19;62.66;98716.36;2380239;74;23006;-77
2023/01/18 10:08:47;;;;;;;;;;;;;;;18.21;62.56;98716.95;2380145;73;51592;-77
2023/01/18 10:12:02;;;;;;;;;;;;;;;18.22;62.46;98711.88;2380690;74;51354;-77
2023/01/18 10:15:09;;;;;;;;;;;;;;;18.19;62.48;98707.52;2358182;74;52654;-77
2023/01/18 10:18:11;;;;;;;;;;;;;;;18.23;62.39;98707.34;2358376;74;51286;-78
2023/01/18 10:21:17;;;;;;;;;;;;;;;18.21;62.55;98712.94;2381217;74;50382;-78
2023/01/18 10:24:20;;;;;;;;;;;;;;;18.18;62.72;98711.22;2380991;74;51588;-77
2023/01/18 10:27:26;;;;;;;;;;;;;;;18.09;62.59;98713.41;2370454;73;51441;-79
2023/01/18 10:30:47;;;;;;;;;;;;;;;18.00;63.06;98721.45;2335136;74;51021;-78
2023/01/18 10:33:48;;;;;;;;;;;;;;;17.98;63.26;98728.37;2378291;73;50489;-79
2023/01/18 10:36:57;;;;;;;;;;;;;;;17.99;63.36;98721.97;2354862;74;50664;-79
2023/01/18 10:40:00;;;;;;;;;;;;;;;18.06;63.28;98722.71;2343340;74;52874;-80
2023/01/18 10:43:03;;;;;;;;;;;;;;;18.19;62.98;98716.89;2293426;76;51232;-79
2023/01/18 10:46:06;;;;;;;;;;;;;;;18.25;62.93;98722.13;2349832;74;51580;-79
2023/01/18 10:49:09;;;;;;;;;;;;;;;18.24;62.94;98733.89;2341057;75;51473;-79
2023/01/18 10:52:18;;;;;;;;;;;;;;;18.21;63.01;98732.17;2373909;73;50250;-79
2023/01/18 10:55:19;;;;;;;;;;;;;;;18.17;63.00;98735.03;2344731;74;51172;-78
2023/01/18 10:58:26;;;;;;;;;;;;;;;18.15;63.07;98735.77;2378767;74;50659;-77
2023/01/18 11:01:28;;;;;;;;;;;;;;;18.13;63.03;98740.00;2378205;73;51456;-77
2023/01/18 11:04:31;;;;;;;;;;;;;;;18.08;63.09;98738.52;2380422;73;50369;-77
2023/01/18 11:07:32;;;;;;;;;;;;;;;18.05;63.14;98738.45;2343706;74;50097;-77
2023/01/18 11:10:34;;;;;;;;;;;;;;;17.99;63.30;98736.70;2341485;74;50720;-77
2023/01/18 11:13:41;;;;;;;;;;;;;;;18.01;63.38;98736.48;2342101;74;50619;-78
2023/01/18 11:16:44;;;;;;;;;;;;;;;18.12;63.15;98740.25;2341348;75;50308;-77
2023/01/18 11:19:47;;;;;;;;;;;;;;;18.24;62.88;98743.80;2317814;76;51155;-77
2023/01/18 11:22:53;;;;;;;;;;;;;;;18.26;62.93;98748.38;2340401;76;51523;-78
2023/01/18 11:25:56;;;;;;;;;;;;;;;18.33;62.97;98746.42;2363293;73;51517;-77
2023/01/18 11:29:03;;;;;;;;;;;;;;;18.37;63.03;98750.30;2388448;73;52283;-79
2023/01/18 11:32:05;;;;;;;;;;;;;;;18.36;62.96;98755.86;2330672;75;51299;-78
2023/01/18 11:35:07;;;;;;;;;;;;;;;18.37;62.78;98752.97;2381709;74;50703;-78
2023/01/18 11:38:10;;;;;;;;;;;;;;;18.36;62.71;98754.00;2382189;73;50253;-78
2023/01/18 11:41:14;;;;;;;;;;;;;;;18.33;62.74;98753.13;2381641;73;50422;-78
2023/01/18 11:44:21;;;;;;;;;;;;;;;18.36;62.58;98760.70;2357833;73;51774;-79
2023/01/18 11:47:31;;;;;;;;;;;;;;;18.24;62.91;98757.18;2384605;74;22365;-79
2023/01/18 11:50:35;;;;;;;;;;;;;;;18.14;63.13;98759.58;2360373;73;50858;-79
2023/01/18 11:53:47;;;;;;;;;;;;;;;18.10;63.70;98754.37;2358706;74;51773;-78
2023/01/18 11:56:54;;;;;;;;;;;;;;;18.18;63.27;98757.53;2359397;74;51781;-77
2023/01/18 11:59:55;;;;;;;;;;;;;;;18.20;63.46;98757.33;2379266;74;22415;-79
2023/01/18 12:02:59;;;;;;;;;;;;;;;18.25;63.73;98757.46;2341958;74;50271;-78
2023/01/18 12:06:18;;;;;;;;;;;;;;;18.26;64.03;98761.27;2340845;74;50751;-79
2023/01/18 12:09:24;;;;;;;;;;;;;;;18.23;64.24;98767.57;2355676;74;53093;-81
2023/01/18 12:12:36;;;;;;;;;;;;;;;18.21;64.11;98766.48;2358424;74;51466;-77
2023/01/18 12:15:44;;;;;;;;;;;;;;;18.17;64.52;98769.83;2341555;76;50263;-78
2023/01/18 12:19:05;;;;;;;;;;;;;;;18.16;64.82;98768.17;2341316;75;50335;-78
2023/01/18 12:22:21;;;;;;;;;;;;;;;18.16;64.94;98782.89;2371998;73;50286;-79
2023/01/18 12:25:27;;;;;;;;;;;;;;;18.15;64.97;98784.77;2379286;74;50731;-76
2023/01/18 12:28:39;;;;;;;;;;;;;;;18.12;64.84;98791.10;2394276;73;51524;-77
2023/01/18 12:31:43;;;;;;;;;;;;;;;18.14;64.88;98787.16;2382087;74;51582;-77
2023/01/18 12:34:46;;;;;;;;;;;;;;;18.26;64.45;98789.87;2358627;74;51586;-78
2023/01/18 12:37:49;;;;;;;;;;;;;;;18.29;64.34;98794.80;2381775;74;50713;-77
2023/01/18 12:40:52;;;;;;;;;;;;;;;18.29;64.49;98796.14;2351862;74;50289;-79
2023/01/18 12:43:57;;;;;;;;;;;;;;;18.30;64.35;98796.95;2380661;74;50769;-78
2023/01/18 12:47:10;;;;;;;;;;;;;;;18.26;64.69;98795.22;2354863;73;22330;-81
2023/01/18 12:50:18;;;;;;;;;;;;;;;18.24;64.55;98804.84;2344292;76;50723;-80
2023/01/18 12:53:21;;;;;;;;;;;;;;;18.22;64.69;98812.27;2363044;73;21905;-77
2023/01/18 12:56:38;;;;;;;;;;;;;;;18.21;64.80;98815.16;2382625;74;50696;-79
2023/01/18 12:59:41;;;;;;;;;;;;;;;18.18;64.81;98828.47;2332287;74;52143;-81
2023/01/18 13:02:44;;;;;;;;;;;;;;;18.17;64.88;98827.37;2379705;74;50836;-79
2023/01/18 13:05:53;;;;;;;;;;;;;;;18.20;64.80;98829.59;2379318;75;50819;-80
2023/01/18 13:09:06;;;;;;;;;;;;;;;18.22;64.64;98826.19;2346159;74;51889;-78
2023/01/18 13:12:08;;;;;;;;;;;;;;;18.27;64.57;98830.34;2343942;74;52529;-78
2023/01/18 13:15:26;;;;;;;;;;;;;;;18.37;64.30;98836.48;2340539;76;51636;-78
2023/01/18 13:18:38;;;;;;;;;;;;;;;18.47;63.86;98837.59;2340788;75;50075;-78
2023/01/18 13:21:42;;;;;;;;;;;;;;;18.43;64.12;98847.64;2371117;73;52011;-79
2023/01/18 13:25:07;;;;;;;;;;;;;;;18.41;64.14;98849.20;2357545;74;51046;-79
2023/01/18 13:28:07;;;;;;;;;;;;;;;18.38;64.26;98858.22;2351289;74;22348;-79
2023/01/18 13:31:08;;;;;;;;;;;;;;;18.36;64.32;98852.26;2369087;73;51516;-80
2023/01/18 13:34:17;;;;;;;;;;;;;;;18.32;64.48;98856.45;2387768;73;50735;-79
2023/01/18 13:37:39;;;;;;;;;;;;;;;18.30;64.61;98864.69;2336640;75;51225;-80
2023/01/18 13:40:41;;;;;;;;;;;;;;;18.29;64.56;98863.06;2338561;74;50865;-79
2023/01/18 13:43:44;;;;;;;;;;;;;;;18.28;64.57;98869.45;2343087;74;51476;-77
2023/01/18 13:46:46;;;;;;;;;;;;;;;18.29;64.51;98877.80;2343773;75;51505;-80
2023/01/18 13:49:48;;;;;;;;;;;;;;;18.35;64.38;98886.78;2320180;76;50503;-79
2023/01/18 13:52:53;;;;;;;;;;;;;;;18.40;64.19;98890.95;2327683;74;50647;-81
2023/01/18 13:55:56;;;;;;;;;;;;;;;18.39;64.20;98895.98;2365354;74;22299;-79
2023/01/18 13:59:17;;;;;;;;;;;;;;;18.37;64.07;98901.58;2372684;73;50475;-80
2023/01/18 14:02:20;;;;;;;;;;;;;;;18.31;64.10;98903.80;2349653;75;51024;-80
2023/01/18 14:05:24;;;;;;;;;;;;;;;18.26;64.23;98913.02;2341985;76;50776;-78
2023/01/18 14:08:27;;;;;;;;;;;;;;;18.21;64.17;98913.71;2345525;74;52451;-79
2023/01/18 14:11:30;;;;;;;;;;;;;;;18.16;64.31;98916.24;2343255;75;51568;-78
2023/01/18 14:14:33;;;;;;;;;;;;;;;18.11;64.37;98928.13;2366643;75;51201;-77
2023/01/18 14:17:37;;;;;;;;;;;;;;;18.08;64.52;98934.43;2381141;74;50814;-79
2023/01/18 14:20:44;;;;;;;;;;;;;;;18.06;64.68;98943.52;2357008;75;50138;-76
2023/01/18 14:24:05;;;;;;;;;;;;;;;18.11;64.71;98946.87;2344450;74;50740;-75
2023/01/18 14:27:08;;;;;;;;;;;;;;;18.24;64.38;98953.42;2405486;73;51875;-78
2023/01/18 14:30:29;;;;;;;;;;;;;;;18.33;63.98;98959.29;2379693;73;51627;-78
2023/01/18 14:33:37;;;;;;;;;;;;;;;18.38;63.87;98965.32;2379731;75;51582;-79
2023/01/18 14:36:38;;;;;;;;;;;;;;;18.41;63.71;98967.55;2381304;74;50760;-79
2023/01/18 14:39:40;;;;;;;;;;;;;;;18.37;63.79;98975.22;2358551;73;51581;-77
2023/01/18 14:42:43;;;;;;;;;;;;;;;18.36;63.70;98979.45;2393893;73;51612;-78
2023/01/18 14:45:46;;;;;;;;;;;;;;;18.35;63.63;98980.50;2379751;74;51508;-78
2023/01/18 14:48:50;;;;;;;;;;;;;;;18.25;64.05;98985.02;2380232;74;51670;-77
2023/01/18 14:51:52;;;;;;;;;;;;;;;18.17;64.17;98988.80;2358145;74;51626;-76
2023/01/18 14:54:54;;;;;;;;;;;;;;;18.10;64.35;98995.25;2381027;73;52455;-76
2023/01/18 14:58:04;;;;;;;;;;;;;;;18.03;64.52;98997.98;2380895;74;50437;-76
2023/01/18 15:01:07;;;;;;;;;;;;;;;18.01;64.71;99000.08;2381097;73;51616;-76
2023/01/18 15:04:19;;;;;;;;;;;;;;;18.08;64.61;99006.69;2357992;74;52633;-77
2023/01/18 15:07:26;;;;;;;;;;;;;;;18.13;64.57;99009.01;2358020;74;51484;-77
2023/01/18 15:10:27;;;;;;;;;;;;;;;18.25;64.22;99015.28;2380620;74;51516;-76
2023/01/18 15:13:29;;;;;;;;;;;;;;;18.36;63.87;99019.61;2392924;73;50203;-77
2023/01/18 15:16:30;;;;;;;;;;;;;;;18.36;63.74;99021.77;2389993;73;52362;-76
2023/01/18 15:19:37;;;;;;;;;;;;;;;18.38;63.70;99027.72;2360747;74;51487;-76
2023/01/18 15:22:39;;;;;;;;;;;;;;;18.31;63.88;99033.66;2378703;73;50796;-76
2023/01/18 15:25:42;;;;;;;;;;;;;;;18.31;63.85;99026.97;2380926;73;51569;-76
2023/01/18 15:28:43;;;;;;;;;;;;;;;18.30;63.78;99044.08;2381022;74;50710;-76
2023/01/18 15:31:46;;;;;;;;;;;;;;;18.27;63.64;99043.19;2342283;74;51462;-77
2023/01/18 15:34:48;;;;;;;;;;;;;;;18.20;63.68;99047.77;2373127;74;51571;-77
2023/01/18 15:37:50;;;;;;;;;;;;;;;18.09;63.88;99057.34;2381137;74;51589;-77
2023/01/18 15:41:04;;;;;;;;;;;;;;;18.13;63.76;99057.19;2336516;75;52661;-75
2023/01/18 15:44:09;;;;;;;;;;;;;;;18.24;63.42;99064.53;2392276;73;50701;-77
2023/01/18 15:47:15;;;;;;;;;;;;;;;18.38;63.04;99068.42;2352629;73;51566;-77
2023/01/18 15:50:23;;;;;;;;;;;;;;;18.40;63.19;99073.04;2373719;73;50402;-77
2023/01/18 15:53:32;;;;;;;;;;;;;;;18.37;63.58;99079.66;2358394;73;51292;-76
2023/01/18 15:56:34;;;;;;;;;;;;;;;18.45;63.42;99083.91;2343017;74;50800;-75
2023/01/18 15:59:35;;;;;;;;;;;;;;;18.47;63.55;99086.67;2345626;74;50759;-77
2023/01/18 16:02:38;;;;;;;;;;;;;;;18.47;63.89;99097.38;2380176;73;50661;-75
2023/01/18 16:05:40;;;;;;;;;;;;;;;18.46;63.97;99101.08;2331480;75;51408;-75
2023/01/18 16:08:58;;;;;;;;;;;;;;;18.47;64.06;99105.42;2340996;76;50273;-75
2023/01/18 16:12:00;;;;;;;;;;;;;;;18.42;64.37;99112.45;2340634;75;50703;-75
2023/01/18 16:15:01;;;;;;;;;;;;;;;18.35;64.67;99109.84;2343093;74;50673;-76
2023/01/18 16:18:03;;;;;;;;;;;;;;;18.34;64.87;99112.23;2343886;75;52545;-74
2023/01/18 16:21:06;;;;;;;;;;;;;;;18.36;65.05;99119.50;2340047;75;50435;-75
2023/01/18 16:24:21;;;;;;;;;;;;;;;18.42;65.13;99126.68;2339710;76;50345;-74
2023/01/18 16:27:27;;;;;;;;;;;;;;;18.48;65.15;99129.81;2340035;75;50329;-74
2023/01/18 16:30:32;;;;;;;;;;;;;;;18.48;65.19;99133.83;2318923;74;51153;-73
2023/01/18 16:33:33;;;;;;;;;;;;;;;18.52;65.18;99140.08;2407807;73;51547;-74
2023/01/18 16:36:35;;;;;;;;;;;;;;;18.48;65.30;99137.84;2343684;73;51636;-76
2023/01/18 16:39:40;;;;;;;;;;;;;;;18.47;65.30;99142.91;2340305;75;50526;-73